M.t. King Everest — V7DB8 — position and weather

sailwx.info

Track history (hours):
 
Tides and Currents Weather Stations Pressure Air Temp Water Temp Dewpoint Dewpoint Depression Visibility Wind Speed Wind Dir Waves Ship Positions

M.t. King Everest

Last reported at 2015-Apr-13 19:08 UTC. Time now 2015-Apr-21 19:03 UTC.
Position N 49°53' W 003°18'.

Length 181 m; draft 11.4 m.

Type: Ship (hazmat cat A). MMSI: 538090267.

Date/timePositionNaut miles runAvg speedWind from/ knotsBaromVisibWave heightAir tempDewpointWater temp
2015-Apr-13 19:08N 49°53' W 003°18'712.8
2015-Apr-13 18:33N 49°57' W 003°08'1212.1
2015-Apr-13 17:33N 50°02' W 002°51'1211.7
2015-Apr-13 16:33N 50°04' W 002°33'1111.0
2015-Apr-13 15:33N 50°07' W 002°16'1010.4
2015-Apr-13 14:33N 50°10' W 002°01'1410.5
2015-Apr-13 13:11N 50°13' W 001°39'1011.2
2015-Apr-13 12:19N 50°16' W 001°25'6713.3
2015-Apr-13 07:16N 50°34' E 000°17'913.1
2015-Apr-13 06:33N 50°37' E 000°31'1312.6
2015-Apr-13 05:33N 50°44' E 000°48'2512.2
2015-Apr-13 03:33N 50°60' E 001°18'1313.3
2015-Apr-13 02:33N 51°08' E 001°34'1414.0
2015-Apr-13 01:33N 51°18' E 001°49'1413.8
2015-Apr-13 00:33N 51°30' E 002°01'1313.2
2015-Apr-12 23:33N 51°39' E 002°16'4610.5
2015-Apr-12 19:08N 52°03' E 003°21'6 9.8
2015-Apr-12 18:31N 52°03' E 003°31'10 9.9
2015-Apr-12 17:33N 52°03' E 003°47'9 8.8
2015-Apr-12 16:33N 52°00' E 003°60'1010.3
2015-Apr-12 15:33N 51°55' E 004°14'3 2.5
2015-Apr-12 14:28N 51°53' E 004°17'0 0.0
2015-Apr-12 13:10N 51°53' E 004°17'0 0.0
2015-Apr-12 12:19N 51°53' E 004°17'0 0.0
2015-Apr-12 11:10N 51°53' E 004°17'0 0.0
2015-Apr-12 07:31N 51°53' E 004°17'0 0.0
2015-Apr-12 06:22N 51°53' E 004°17'0 0.0
2015-Apr-12 04:28N 51°53' E 004°17'0 0.0
2015-Apr-12 02:22N 51°53' E 004°17'0 0.0
2015-Apr-12 01:22N 51°53' E 004°17'0 0.0
2015-Apr-12 00:28N 51°53' E 004°17'0 0.0
2015-Apr-11 23:31N 51°53' E 004°17'0 0.0
2015-Apr-11 21:28N 51°53' E 004°17'0 0.0
2015-Apr-11 20:31N 51°53' E 004°17'0 0.0
2015-Apr-11 19:10N 51°53' E 004°17'0 0.0
2015-Apr-11 18:22N 51°53' E 004°17'0 0.0
2015-Apr-11 17:31N 51°53' E 004°17'0 0.0
2015-Apr-11 16:13N 51°53' E 004°17'0 0.0
2015-Apr-11 15:22N 51°53' E 004°17'0 0.0
2015-Apr-11 14:31N 51°53' E 004°17'0 0.0
2015-Apr-11 13:22N 51°53' E 004°17'0 0.0
2015-Apr-11 12:31N 51°53' E 004°17'0 0.0
2015-Apr-11 11:31N 51°53' E 004°17'0 0.0
2015-Apr-11 08:19N 51°53' E 004°17'0 0.0
2015-Apr-11 07:04N 51°53' E 004°17'0 0.0
2015-Apr-11 06:28N 51°53' E 004°17'0 0.0
2015-Apr-11 04:22N 51°53' E 004°17'0 0.0
2015-Apr-11 03:16N 51°53' E 004°17'0 0.0
2015-Apr-11 02:31N 51°53' E 004°17'0 0.0
2015-Apr-11 01:29N 51°53' E 004°17'1 1.3
2015-Apr-11 00:34N 51°54' E 004°16'9 8.9
2015-Apr-10 23:33N 51°59' E 004°04'9 9.4
2015-Apr-10 22:33N 52°00' E 003°49'9 9.4
2015-Apr-10 21:33N 52°08' E 003°40'3 0.7
2015-Apr-10 17:24N 52°10' E 003°39'0 0.0
2015-Apr-10 16:33N 52°10' E 003°39'0 0.2
2015-Apr-10 15:33N 52°10' E 003°38'0 0.1
2015-Apr-10 14:33N 52°10' E 003°38'0 0.0
2015-Apr-10 13:30N 52°10' E 003°38'0 0.0
2015-Apr-10 12:33N 52°10' E 003°38'0 0.0
2015-Apr-10 11:33N 52°10' E 003°38'0 0.0
2015-Apr-10 10:33N 52°10' E 003°38'0 0.2
2015-Apr-10 09:27N 52°10' E 003°39'0 0.0
2015-Apr-10 08:24N 52°10' E 003°39'0 0.0
2015-Apr-10 07:33N 52°10' E 003°39'0 0.0
2015-Apr-10 06:30N 52°10' E 003°39'0 0.0
2015-Apr-10 05:24N 52°10' E 003°39'0 0.0
2015-Apr-10 04:33N 52°10' E 003°39'0 0.1
2015-Apr-10 03:33N 52°10' E 003°39'0 0.1
2015-Apr-10 02:33N 52°10' E 003°38'0 0.0
2015-Apr-10 01:27N 52°10' E 003°38'0 0.0
2015-Apr-10 00:27N 52°10' E 003°38'0 0.0
2015-Apr-09 23:27N 52°10' E 003°38'0 0.0
2015-Apr-09 22:33N 52°10' E 003°38'0 0.0
2015-Apr-09 21:33N 52°10' E 003°39'0 0.2
2015-Apr-09 20:30N 52°10' E 003°39'0 0.0
2015-Apr-09 19:06N 52°10' E 003°39'0 0.0
2015-Apr-09 17:21N 52°10' E 003°39'0 0.0
2015-Apr-09 16:09N 52°10' E 003°39'0 0.2
2015-Apr-09 15:24N 52°10' E 003°39'0 0.1
2015-Apr-09 14:33N 52°10' E 003°38'0 0.0
2015-Apr-09 12:30N 52°10' E 003°38'0 0.0
2015-Apr-09 11:33N 52°10' E 003°38'0 0.0
2015-Apr-09 10:27N 52°10' E 003°38'0 0.0
2015-Apr-09 09:33N 52°10' E 003°38'0 0.1
2015-Apr-09 08:30N 52°10' E 003°38'0 0.1
2015-Apr-09 07:33N 52°10' E 003°39'0 0.0
2015-Apr-09 06:29N 52°10' E 003°39'0 0.0
2015-Apr-09 04:26N 52°10' E 003°39'0 0.1
2015-Apr-09 03:18N 52°10' E 003°38'0 0.2
2015-Apr-09 02:27N 52°10' E 003°38'0 0.0
2015-Apr-09 01:33N 52°10' E 003°38'0 0.0
2015-Apr-09 00:30N 52°10' E 003°38'0 0.0
2015-Apr-08 23:33N 52°10' E 003°38'0 0.0
2015-Apr-08 22:33N 52°10' E 003°38'0 0.0
2015-Apr-08 21:20N 52°10' E 003°38'0 0.0
2015-Apr-08 20:33N 52°10' E 003°38'0 0.1
2015-Apr-08 19:33N 52°10' E 003°38'0 0.1
2015-Apr-08 18:33N 52°10' E 003°39'0 0.0
2015-Apr-08 17:33N 52°10' E 003°39'0 0.0
2015-Apr-08 16:30N 52°10' E 003°39'0 0.0
2015-Apr-08 15:32N 52°10' E 003°39'0 0.2
2015-Apr-08 14:33N 52°10' E 003°38'0 0.1
2015-Apr-08 13:32N 52°10' E 003°38'0 0.0
2015-Apr-08 12:33N 52°10' E 003°38'0 0.0
2015-Apr-08 11:20N 52°10' E 003°38'0 0.0
2015-Apr-08 10:08N 52°10' E 003°38'0 0.0
2015-Apr-08 09:32N 52°10' E 003°38'0 0.1
2015-Apr-08 05:29N 52°10' E 003°39'0 0.0
2015-Apr-08 04:33N 52°10' E 003°39'0 0.1
2015-Apr-08 01:26N 52°10' E 003°38'0 0.0
2015-Apr-08 00:14N 52°10' E 003°38'0 0.0
2015-Apr-07 23:23N 52°10' E 003°38'0 0.0
2015-Apr-07 22:23N 52°10' E 003°38'0 0.0
2015-Apr-07 21:32N 52°10' E 003°38'0 0.1
2015-Apr-07 20:20N 52°10' E 003°39'0 0.2
2015-Apr-07 19:32N 52°10' E 003°39'0 0.0
2015-Apr-07 18:20N 52°10' E 003°39'0 0.0
2015-Apr-07 16:24N 52°10' E 003°39'0 0.0
2015-Apr-07 15:14N 52°10' E 003°39'0 0.0
2015-Apr-07 14:32N 52°10' E 003°39'0 0.1
2015-Apr-07 13:29N 52°10' E 003°39'0 0.1
2015-Apr-07 12:33N 52°10' E 003°38'0 0.0
2015-Apr-07 11:26N 52°10' E 003°38'0 0.0
2015-Apr-07 10:32N 52°10' E 003°38'0 0.0
2015-Apr-07 09:32N 52°10' E 003°38'0 0.1
2015-Apr-07 08:32N 52°10' E 003°39'0 0.1
2015-Apr-07 07:32N 52°10' E 003°39'0 0.1
2015-Apr-07 06:26N 52°10' E 003°39'0 0.0
2015-Apr-07 05:27N 52°10' E 003°39'0 0.0
2015-Apr-07 04:29N 52°10' E 003°39'0 0.0
2015-Apr-07 03:20N 52°10' E 003°39'0 0.1
2015-Apr-07 01:26N 52°10' E 003°38'0 0.1
2015-Apr-07 00:32N 52°10' E 003°38'0 0.0
2015-Apr-06 23:32N 52°10' E 003°38'0 0.0
2015-Apr-06 22:32N 52°10' E 003°38'0 0.0
2015-Apr-06 21:32N 52°10' E 003°38'0 0.0
2015-Apr-06 20:29N 52°10' E 003°38'0 0.0
2015-Apr-06 19:32N 52°10' E 003°38'0 0.2
2015-Apr-06 18:32N 52°10' E 003°39'0 0.0
2015-Apr-06 17:26N 52°10' E 003°39'0 0.0
2015-Apr-06 16:23N 52°10' E 003°39'0 0.0
2015-Apr-06 15:08N 52°10' E 003°39'0 0.2
2015-Apr-06 13:32N 52°10' E 003°38'0 0.0
2015-Apr-06 12:23N 52°10' E 003°38'0 0.0
2015-Apr-06 10:17N 52°10' E 003°38'0 0.0
2015-Apr-06 09:08N 52°10' E 003°38'0 0.0
2015-Apr-06 08:23N 52°10' E 003°38'0 0.0
2015-Apr-06 07:14N 52°10' E 003°39'0 0.1
2015-Apr-06 04:23N 52°10' E 003°39'0 0.0
2015-Apr-06 02:20N 52°10' E 003°39'0 0.1
2015-Apr-06 01:32N 52°10' E 003°39'0 0.2
2015-Apr-06 00:32N 52°10' E 003°38'0 0.0
2015-Apr-05 23:29N 52°10' E 003°38'0 0.0
2015-Apr-05 22:29N 52°10' E 003°38'0 0.0
2015-Apr-05 21:32N 52°10' E 003°38'0 0.0
2015-Apr-05 20:26N 52°10' E 003°38'0 0.0
2015-Apr-05 19:29N 52°10' E 003°39'0 0.1
2015-Apr-05 18:32N 52°10' E 003°39'0 0.0
2015-Apr-05 14:29N 52°10' E 003°39'0 0.1
2015-Apr-05 11:11N 52°10' E 003°38'0 0.0
2015-Apr-05 10:29N 52°10' E 003°38'0 0.0
2015-Apr-05 08:32N 52°10' E 003°38'0 0.0
2015-Apr-05 01:29N 52°10' E 003°39'0 0.1
2015-Apr-05 00:20N 52°10' E 003°38'0 0.0
2015-Apr-04 23:23N 52°10' E 003°38'0 0.0
2015-Apr-04 22:20N 52°10' E 003°38'0 0.0
2015-Apr-04 20:32N 52°10' E 003°38'0 0.0
2015-Apr-04 17:29N 52°10' E 003°38'0 0.0
2015-Apr-04 11:32N 52°10' E 003°38'0 0.0
2015-Apr-04 10:32N 52°10' E 003°38'0 0.0
2015-Apr-04 09:23N 52°10' E 003°38'0 0.0
2015-Apr-04 07:26N 52°10' E 003°38'0 0.0
2015-Apr-04 05:32N 52°10' E 003°38'0 0.1
2015-Apr-04 02:08N 52°10' E 003°39'0 0.1
2015-Apr-04 00:08N 52°10' E 003°38'0 0.0
2015-Apr-03 23:32N 52°10' E 003°38'0 0.0
2015-Apr-03 22:32N 52°10' E 003°38'0 0.0
2015-Apr-03 21:23N 52°10' E 003°38'0 0.0
2015-Apr-03 19:14N 52°10' E 003°38'  
Track history (hours):
 
Tides and Currents Weather Stations Pressure Air Temp Water Temp Dewpoint Dewpoint Depression Visibility Wind Speed Wind Dir Waves Ship Positions

M.t. King Everest

Last reported at 2015-Apr-13 19:08 UTC. Time now 2015-Apr-21 19:03 UTC.
Position N 49°53' W 003°18'.

Length 181 m; draft 11.4 m.

Type: Ship (hazmat cat A). MMSI: 538090267.

Date/timePositionNaut miles runAvg speedWind from/ knotsBaromVisibWave heightAir tempDewpointWater temp
2015-Apr-13 19:08N 49°53' W 003°18'712.8
2015-Apr-13 18:33N 49°57' W 003°08'1212.1
2015-Apr-13 17:33N 50°02' W 002°51'1211.7
2015-Apr-13 16:33N 50°04' W 002°33'1111.0
2015-Apr-13 15:33N 50°07' W 002°16'1010.4
2015-Apr-13 14:33N 50°10' W 002°01'1410.5
2015-Apr-13 13:11N 50°13' W 001°39'1011.2
2015-Apr-13 12:19N 50°16' W 001°25'6713.3
2015-Apr-13 07:16N 50°34' E 000°17'913.1
2015-Apr-13 06:33N 50°37' E 000°31'1312.6
2015-Apr-13 05:33N 50°44' E 000°48'2512.2
2015-Apr-13 03:33N 50°60' E 001°18'1313.3
2015-Apr-13 02:33N 51°08' E 001°34'1414.0
2015-Apr-13 01:33N 51°18' E 001°49'1413.8
2015-Apr-13 00:33N 51°30' E 002°01'1313.2
2015-Apr-12 23:33N 51°39' E 002°16'4610.5
2015-Apr-12 19:08N 52°03' E 003°21'6 9.8
2015-Apr-12 18:31N 52°03' E 003°31'10 9.9
2015-Apr-12 17:33N 52°03' E 003°47'9 8.8
2015-Apr-12 16:33N 52°00' E 003°60'1010.3
2015-Apr-12 15:33N 51°55' E 004°14'3 2.5
2015-Apr-12 14:28N 51°53' E 004°17'0 0.0
2015-Apr-12 13:10N 51°53' E 004°17'0 0.0
2015-Apr-12 12:19N 51°53' E 004°17'0 0.0
2015-Apr-12 11:10N 51°53' E 004°17'0 0.0
2015-Apr-12 07:31N 51°53' E 004°17'0 0.0
2015-Apr-12 06:22N 51°53' E 004°17'0 0.0
2015-Apr-12 04:28N 51°53' E 004°17'0 0.0
2015-Apr-12 02:22N 51°53' E 004°17'0 0.0
2015-Apr-12 01:22N 51°53' E 004°17'0 0.0
2015-Apr-12 00:28N 51°53' E 004°17'0 0.0
2015-Apr-11 23:31N 51°53' E 004°17'0 0.0
2015-Apr-11 21:28N 51°53' E 004°17'0 0.0
2015-Apr-11 20:31N 51°53' E 004°17'0 0.0
2015-Apr-11 19:10N 51°53' E 004°17'0 0.0
2015-Apr-11 18:22N 51°53' E 004°17'0 0.0
2015-Apr-11 17:31N 51°53' E 004°17'0 0.0
2015-Apr-11 16:13N 51°53' E 004°17'0 0.0
2015-Apr-11 15:22N 51°53' E 004°17'0 0.0
2015-Apr-11 14:31N 51°53' E 004°17'0 0.0
2015-Apr-11 13:22N 51°53' E 004°17'0 0.0
2015-Apr-11 12:31N 51°53' E 004°17'0 0.0
2015-Apr-11 11:31N 51°53' E 004°17'0 0.0
2015-Apr-11 08:19N 51°53' E 004°17'0 0.0
2015-Apr-11 07:04N 51°53' E 004°17'0 0.0
2015-Apr-11 06:28N 51°53' E 004°17'0 0.0
2015-Apr-11 04:22N 51°53' E 004°17'0 0.0
2015-Apr-11 03:16N 51°53' E 004°17'0 0.0
2015-Apr-11 02:31N 51°53' E 004°17'0 0.0
2015-Apr-11 01:29N 51°53' E 004°17'1 1.3
2015-Apr-11 00:34N 51°54' E 004°16'9 8.9
2015-Apr-10 23:33N 51°59' E 004°04'9 9.4
2015-Apr-10 22:33N 52°00' E 003°49'9 9.4
2015-Apr-10 21:33N 52°08' E 003°40'3 0.7
2015-Apr-10 17:24N 52°10' E 003°39'0 0.0
2015-Apr-10 16:33N 52°10' E 003°39'0 0.2
2015-Apr-10 15:33N 52°10' E 003°38'0 0.1
2015-Apr-10 14:33N 52°10' E 003°38'0 0.0
2015-Apr-10 13:30N 52°10' E 003°38'0 0.0
2015-Apr-10 12:33N 52°10' E 003°38'0 0.0
2015-Apr-10 11:33N 52°10' E 003°38'0 0.0
2015-Apr-10 10:33N 52°10' E 003°38'0 0.2
2015-Apr-10 09:27N 52°10' E 003°39'0 0.0
2015-Apr-10 08:24N 52°10' E 003°39'0 0.0
2015-Apr-10 07:33N 52°10' E 003°39'0 0.0
2015-Apr-10 06:30N 52°10' E 003°39'0 0.0
2015-Apr-10 05:24N 52°10' E 003°39'0 0.0
2015-Apr-10 04:33N 52°10' E 003°39'0 0.1
2015-Apr-10 03:33N 52°10' E 003°39'0 0.1
2015-Apr-10 02:33N 52°10' E 003°38'0 0.0
2015-Apr-10 01:27N 52°10' E 003°38'0 0.0
2015-Apr-10 00:27N 52°10' E 003°38'0 0.0
2015-Apr-09 23:27N 52°10' E 003°38'0 0.0
2015-Apr-09 22:33N 52°10' E 003°38'0 0.0
2015-Apr-09 21:33N 52°10' E 003°39'0 0.2
2015-Apr-09 20:30N 52°10' E 003°39'0 0.0
2015-Apr-09 19:06N 52°10' E 003°39'0 0.0
2015-Apr-09 17:21N 52°10' E 003°39'0 0.0
2015-Apr-09 16:09N 52°10' E 003°39'0 0.2
2015-Apr-09 15:24N 52°10' E 003°39'0 0.1
2015-Apr-09 14:33N 52°10' E 003°38'0 0.0
2015-Apr-09 12:30N 52°10' E 003°38'0 0.0
2015-Apr-09 11:33N 52°10' E 003°38'0 0.0
2015-Apr-09 10:27N 52°10' E 003°38'0 0.0
2015-Apr-09 09:33N 52°10' E 003°38'0 0.1
2015-Apr-09 08:30N 52°10' E 003°38'0 0.1
2015-Apr-09 07:33N 52°10' E 003°39'0 0.0
2015-Apr-09 06:29N 52°10' E 003°39'0 0.0
2015-Apr-09 04:26N 52°10' E 003°39'0 0.1
2015-Apr-09 03:18N 52°10' E 003°38'0 0.2
2015-Apr-09 02:27N 52°10' E 003°38'0 0.0
2015-Apr-09 01:33N 52°10' E 003°38'0 0.0
2015-Apr-09 00:30N 52°10' E 003°38'0 0.0
2015-Apr-08 23:33N 52°10' E 003°38'0 0.0
2015-Apr-08 22:33N 52°10' E 003°38'0 0.0
2015-Apr-08 21:20N 52°10' E 003°38'0 0.0
2015-Apr-08 20:33N 52°10' E 003°38'0 0.1
2015-Apr-08 19:33N 52°10' E 003°38'0 0.1
2015-Apr-08 18:33N 52°10' E 003°39'0 0.0
2015-Apr-08 17:33N 52°10' E 003°39'0 0.0
2015-Apr-08 16:30N 52°10' E 003°39'0 0.0
2015-Apr-08 15:32N 52°10' E 003°39'0 0.2
2015-Apr-08 14:33N 52°10' E 003°38'0 0.1
2015-Apr-08 13:32N 52°10' E 003°38'0 0.0
2015-Apr-08 12:33N 52°10' E 003°38'0 0.0
2015-Apr-08 11:20N 52°10' E 003°38'0 0.0
2015-Apr-08 10:08N 52°10' E 003°38'0 0.0
2015-Apr-08 09:32N 52°10' E 003°38'0 0.1
2015-Apr-08 05:29N 52°10' E 003°39'0 0.0
2015-Apr-08 04:33N 52°10' E 003°39'0 0.1
2015-Apr-08 01:26N 52°10' E 003°38'0 0.0
2015-Apr-08 00:14N 52°10' E 003°38'0 0.0
2015-Apr-07 23:23N 52°10' E 003°38'0 0.0
2015-Apr-07 22:23N 52°10' E 003°38'0 0.0
2015-Apr-07 21:32N 52°10' E 003°38'0 0.1
2015-Apr-07 20:20N 52°10' E 003°39'0 0.2
2015-Apr-07 19:32N 52°10' E 003°39'0 0.0
2015-Apr-07 18:20N 52°10' E 003°39'0 0.0
2015-Apr-07 16:24N 52°10' E 003°39'0 0.0
2015-Apr-07 15:14N 52°10' E 003°39'0 0.0
2015-Apr-07 14:32N 52°10' E 003°39'0 0.1
2015-Apr-07 13:29N 52°10' E 003°39'0 0.1
2015-Apr-07 12:33N 52°10' E 003°38'0 0.0
2015-Apr-07 11:26N 52°10' E 003°38'0 0.0
2015-Apr-07 10:32N 52°10' E 003°38'0 0.0
2015-Apr-07 09:32N 52°10' E 003°38'0 0.1
2015-Apr-07 08:32N 52°10' E 003°39'0 0.1
2015-Apr-07 07:32N 52°10' E 003°39'0 0.1
2015-Apr-07 06:26N 52°10' E 003°39'0 0.0
2015-Apr-07 05:27N 52°10' E 003°39'0 0.0
2015-Apr-07 04:29N 52°10' E 003°39'0 0.0
2015-Apr-07 03:20N 52°10' E 003°39'0 0.1
2015-Apr-07 01:26N 52°10' E 003°38'0 0.1
2015-Apr-07 00:32N 52°10' E 003°38'0 0.0
2015-Apr-06 23:32N 52°10' E 003°38'0 0.0
2015-Apr-06 22:32N 52°10' E 003°38'0 0.0
2015-Apr-06 21:32N 52°10' E 003°38'0 0.0
2015-Apr-06 20:29N 52°10' E 003°38'0 0.0
2015-Apr-06 19:32N 52°10' E 003°38'0 0.2
2015-Apr-06 18:32N 52°10' E 003°39'0 0.0
2015-Apr-06 17:26N 52°10' E 003°39'0 0.0
2015-Apr-06 16:23N 52°10' E 003°39'0 0.0
2015-Apr-06 15:08N 52°10' E 003°39'0 0.2
2015-Apr-06 13:32N 52°10' E 003°38'0 0.0
2015-Apr-06 12:23N 52°10' E 003°38'0 0.0
2015-Apr-06 10:17N 52°10' E 003°38'0 0.0
2015-Apr-06 09:08N 52°10' E 003°38'0 0.0
2015-Apr-06 08:23N 52°10' E 003°38'0 0.0
2015-Apr-06 07:14N 52°10' E 003°39'0 0.1
2015-Apr-06 04:23N 52°10' E 003°39'0 0.0
2015-Apr-06 02:20N 52°10' E 003°39'0 0.1
2015-Apr-06 01:32N 52°10' E 003°39'0 0.2
2015-Apr-06 00:32N 52°10' E 003°38'0 0.0
2015-Apr-05 23:29N 52°10' E 003°38'0 0.0
2015-Apr-05 22:29N 52°10' E 003°38'0 0.0
2015-Apr-05 21:32N 52°10' E 003°38'0 0.0
2015-Apr-05 20:26N 52°10' E 003°38'0 0.0
2015-Apr-05 19:29N 52°10' E 003°39'0 0.1
2015-Apr-05 18:32N 52°10' E 003°39'0 0.0
2015-Apr-05 14:29N 52°10' E 003°39'0 0.1
2015-Apr-05 11:11N 52°10' E 003°38'0 0.0
2015-Apr-05 10:29N 52°10' E 003°38'0 0.0
2015-Apr-05 08:32N 52°10' E 003°38'0 0.0
2015-Apr-05 01:29N 52°10' E 003°39'0 0.1
2015-Apr-05 00:20N 52°10' E 003°38'0 0.0
2015-Apr-04 23:23N 52°10' E 003°38'0 0.0
2015-Apr-04 22:20N 52°10' E 003°38'0 0.0
2015-Apr-04 20:32N 52°10' E 003°38'0 0.0
2015-Apr-04 17:29N 52°10' E 003°38'0 0.0
2015-Apr-04 11:32N 52°10' E 003°38'0 0.0
2015-Apr-04 10:32N 52°10' E 003°38'0 0.0
2015-Apr-04 09:23N 52°10' E 003°38'0 0.0
2015-Apr-04 07:26N 52°10' E 003°38'0 0.0
2015-Apr-04 05:32N 52°10' E 003°38'0 0.1
2015-Apr-04 02:08N 52°10' E 003°39'0 0.1
2015-Apr-04 00:08N 52°10' E 003°38'0 0.0
2015-Apr-03 23:32N 52°10' E 003°38'0 0.0
2015-Apr-03 22:32N 52°10' E 003°38'0 0.0
2015-Apr-03 21:23N 52°10' E 003°38'0 0.0
2015-Apr-03 19:14N 52°10' E 003°38'  

Dump ship's entire track history